Time;durP1;ratioP1;P1;durP2;ratioP2;P2;SDS_P1;SDS_P2;PMS_P1;PMS_P2;Temp;Humidity;BMP_temperature;BMP_pressure;BME280_temperature;BME280_humidity;BME280_pressure;Samples;Min_cycle;Max_cycle;Signal;HPM_P1;HPM_P2
2022/10/16 00:01:11;;;;;;;5.93;1.87;;;;;;;;;;4971099;28;20097;-64
2022/10/16 00:03:37;;;;;;;12.37;2.47;;;;;;;;;;4970418;28;20050;-64
2022/10/16 00:06:04;;;;;;;9.13;1.90;;;;;;;;;;4971573;28;20124;-64
2022/10/16 00:08:30;;;;;;;5.83;1.80;;;;;;;;;;4972089;28;20070;-64
2022/10/16 00:11:16;;;;;;;8.97;2.13;;;;;;;;;;4962371;28;20035;-64
2022/10/16 00:13:43;;;;;;;8.87;3.23;;;;;;;;;;4958307;28;20159;-64
2022/10/16 00:16:10;;;;;;;7.00;2.43;;;;;;;;;;4963317;28;20126;-64
2022/10/16 00:18:37;;;;;;;7.63;2.30;;;;;;;;;;4959239;28;20050;-64
2022/10/16 00:21:16;;;;;;;6.83;2.13;;;;;;;;;;4962039;28;20425;-64
2022/10/16 00:23:43;;;;;;;10.80;2.27;;;;;;;;;;4962802;28;20039;-64
2022/10/16 00:26:10;;;;;;;10.60;2.40;;;;;;;;;;4960171;28;20514;-63
2022/10/16 00:28:36;;;;;;;4.80;1.80;;;;;;;;;;4962305;28;20090;-63
2022/10/16 00:31:04;;;;;;;11.47;2.30;;;;;;;;;;4962832;28;20484;-64
2022/10/16 00:33:30;;;;;;;9.40;2.20;;;;;;;;;;4963038;28;20061;-64
2022/10/16 00:35:58;;;;;;;6.73;2.40;;;;;;;;;;4967620;28;20046;-64
2022/10/16 00:38:24;;;;;;;8.50;2.57;;;;;;;;;;4962281;28;20040;-64
2022/10/16 00:40:50;;;;;;;7.60;1.80;;;;;;;;;;4957827;28;20074;-64
2022/10/16 00:43:35;;;;;;;6.03;2.10;;;;;;;;;;4961681;28;20450;-64
2022/10/16 00:46:02;;;;;;;8.97;2.00;;;;;;;;;;4960108;28;20398;-64
2022/10/16 00:48:28;;;;;;;7.97;1.77;;;;;;;;;;4965917;28;20069;-63
2022/10/16 00:50:54;;;;;;;11.07;2.60;;;;;;;;;;4963056;28;20049;-64
2022/10/16 00:53:20;;;;;;;10.00;2.40;;;;;;;;;;4965891;28;20621;-64
2022/10/16 00:55:46;;;;;;;5.10;1.63;;;;;;;;;;4961531;28;20070;-64
2022/10/16 00:58:12;;;;;;;7.73;2.13;;;;;;;;;;4967289;28;20077;-64
2022/10/16 01:00:39;;;;;;;10.50;1.60;;;;;;;;;;4962323;28;20053;-64
2022/10/16 01:03:23;;;;;;;6.20;2.13;;;;;;;;;;4960749;28;20043;-63
2022/10/16 01:06:00;;;;;;;5.70;1.77;;;;;;;;;;4965601;28;20101;-64
2022/10/16 01:08:52;;;;;;;5.57;1.53;;;;;;;;;;4961113;28;20129;-64
2022/10/16 01:11:42;;;;;;;8.63;2.13;;;;;;;;;;4957158;28;20048;-63
2022/10/16 01:14:34;;;;;;;5.73;1.60;;;;;;;;;;4949387;28;20505;-64
2022/10/16 01:17:03;;;;;;;5.50;1.60;;;;;;;;;;4936822;28;20142;-63
2022/10/16 01:19:55;;;;;;;5.23;2.30;;;;;;;;;;4963984;28;20039;-64
2022/10/16 01:22:23;;;;;;;6.93;1.80;;;;;;;;;;4960202;28;20050;-64
2022/10/16 01:24:50;;;;;;;9.23;2.00;;;;;;;;;;4960988;28;20109;-63
2022/10/16 01:27:27;;;;;;;8.10;1.60;;;;;;;;;;4958867;28;20042;-64
2022/10/16 01:30:23;;;;;;;7.10;1.73;;;;;;;;;;4961153;28;20062;-64
2022/10/16 01:32:55;;;;;;;8.60;1.80;;;;;;;;;;4942122;28;20043;-64
2022/10/16 01:35:53;;;;;;;3.37;1.77;;;;;;;;;;4959526;28;20133;-63
2022/10/16 01:38:26;;;;;;;6.73;2.00;;;;;;;;;;4926618;28;20453;-64
2022/10/16 01:40:57;;;;;;;9.68;1.90;;;;;;;;;;4957537;28;20122;-64
2022/10/16 01:43:24;;;;;;;4.33;1.70;;;;;;;;;;4957082;28;20047;-63
2022/10/16 01:45:51;;;;;;;5.63;1.83;;;;;;;;;;4959852;28;20039;-64
2022/10/16 01:48:19;;;;;;;6.17;2.47;;;;;;;;;;4961747;28;20039;-66
2022/10/16 01:50:49;;;;;;;10.40;2.27;;;;;;;;;;4959424;28;20055;-65
2022/10/16 01:53:16;;;;;;;9.27;2.10;;;;;;;;;;4959062;28;20047;-65
2022/10/16 01:55:45;;;;;;;5.97;2.20;;;;;;;;;;4961094;28;20417;-66
2022/10/16 01:58:13;;;;;;;7.83;2.20;;;;;;;;;;4960727;28;20126;-66
2022/10/16 02:00:40;;;;;;;6.23;2.17;;;;;;;;;;4956864;28;20134;-66
2022/10/16 02:03:07;;;;;;;6.97;2.17;;;;;;;;;;4958261;28;20133;-66
2022/10/16 02:05:37;;;;;;;6.10;2.30;;;;;;;;;;4962222;28;20508;-66
2022/10/16 02:08:03;;;;;;;6.90;2.40;;;;;;;;;;4958552;28;20047;-66
2022/10/16 02:10:30;;;;;;;6.13;2.50;;;;;;;;;;4957742;28;20043;-66
2022/10/16 02:13:15;;;;;;;5.70;2.03;;;;;;;;;;4959138;28;20051;-66
2022/10/16 02:15:41;;;;;;;6.40;2.17;;;;;;;;;;4958936;28;20129;-65
2022/10/16 02:18:08;;;;;;;6.03;2.33;;;;;;;;;;4956963;28;20050;-66
2022/10/16 02:20:40;;;;;;;3.23;1.87;;;;;;;;;;4958454;28;20102;-66
2022/10/16 02:23:11;;;;;;;7.07;2.43;;;;;;;;;;4958642;28;20051;-65
2022/10/16 02:25:40;;;;;;;6.53;2.00;;;;;;;;;;4958226;28;20046;-65
2022/10/16 02:28:16;;;;;;;6.57;2.37;;;;;;;;;;4958338;28;20072;-65
2022/10/16 02:30:48;;;;;;;6.77;2.10;;;;;;;;;;4955096;28;20062;-66
2022/10/16 02:33:15;;;;;;;5.93;2.50;;;;;;;;;;4958997;28;20122;-66
2022/10/16 02:35:42;;;;;;;8.50;2.83;;;;;;;;;;4961284;28;20051;-66
2022/10/16 02:38:08;;;;;;;4.10;2.60;;;;;;;;;;4956608;28;20085;-65
2022/10/16 02:40:34;;;;;;;7.50;2.20;;;;;;;;;;4961510;28;20097;-65
2022/10/16 02:43:00;;;;;;;7.90;2.60;;;;;;;;;;4959766;28;20074;-66
2022/10/16 02:45:27;;;;;;;5.10;2.10;;;;;;;;;;4959737;28;20093;-66
2022/10/16 02:47:53;;;;;;;5.20;2.07;;;;;;;;;;4958041;28;20043;-65
2022/10/16 02:50:19;;;;;;;6.67;2.27;;;;;;;;;;4959661;28;20054;-65
2022/10/16 02:52:45;;;;;;;7.93;3.37;;;;;;;;;;4962473;28;20074;-66
2022/10/16 02:55:11;;;;;;;4.27;2.13;;;;;;;;;;4964376;28;20086;-66
2022/10/16 02:57:37;;;;;;;5.27;1.93;;;;;;;;;;4964973;28;20476;-66
2022/10/16 03:00:04;;;;;;;9.03;2.37;;;;;;;;;;4965670;28;20106;-65
2022/10/16 03:02:30;;;;;;;5.60;2.33;;;;;;;;;;4963680;28;20492;-65
2022/10/16 03:04:56;;;;;;;4.37;2.20;;;;;;;;;;4961693;28;20094;-64
2022/10/16 03:07:22;;;;;;;8.43;2.10;;;;;;;;;;4947149;28;20039;-64
2022/10/16 03:09:48;;;;;;;5.83;2.03;;;;;;;;;;4964121;28;20501;-64
2022/10/16 03:12:14;;;;;;;6.43;2.27;;;;;;;;;;4965627;28;20039;-65
2022/10/16 03:14:40;;;;;;;5.97;1.90;;;;;;;;;;4966425;28;20039;-64
2022/10/16 03:17:06;;;;;;;17.63;2.60;;;;;;;;;;4958804;28;20051;-65
2022/10/16 03:19:32;;;;;;;5.20;2.30;;;;;;;;;;4958999;28;20043;-64
2022/10/16 03:21:58;;;;;;;5.37;1.80;;;;;;;;;;4959420;28;20075;-65
2022/10/16 03:24:24;;;;;;;4.33;2.43;;;;;;;;;;4960736;28;20101;-64
2022/10/16 03:26:50;;;;;;;5.60;2.03;;;;;;;;;;4959479;28;20043;-64
2022/10/16 03:29:16;;;;;;;4.93;2.40;;;;;;;;;;4962784;28;20050;-65
2022/10/16 03:31:42;;;;;;;5.93;2.43;;;;;;;;;;4968130;28;20417;-65
2022/10/16 03:34:08;;;;;;;4.27;2.20;;;;;;;;;;4963641;28;20047;-65
2022/10/16 03:36:34;;;;;;;6.77;2.20;;;;;;;;;;4962973;28;20108;-65
2022/10/16 03:39:00;;;;;;;6.30;2.50;;;;;;;;;;4960324;28;20047;-64
2022/10/16 03:41:26;;;;;;;8.47;2.17;;;;;;;;;;4957640;28;20051;-65
2022/10/16 03:43:52;;;;;;;4.30;2.30;;;;;;;;;;4959634;28;20555;-64
2022/10/16 03:46:18;;;;;;;6.50;2.53;;;;;;;;;;4965092;28;20042;-65
2022/10/16 03:48:44;;;;;;;6.77;2.80;;;;;;;;;;4966913;28;20047;-64
2022/10/16 03:51:10;;;;;;;6.77;2.67;;;;;;;;;;4957084;28;20420;-64
2022/10/16 03:53:36;;;;;;;5.30;2.80;;;;;;;;;;4965145;28;20043;-65
2022/10/16 03:56:03;;;;;;;7.33;2.97;;;;;;;;;;4961518;28;20058;-65
2022/10/16 03:58:29;;;;;;;7.00;2.97;;;;;;;;;;4957817;28;20051;-65
2022/10/16 04:00:55;;;;;;;6.13;2.97;;;;;;;;;;4955474;28;20062;-64
2022/10/16 04:03:21;;;;;;;5.07;3.10;;;;;;;;;;4962275;28;20485;-65
2022/10/16 04:05:47;;;;;;;6.53;2.73;;;;;;;;;;4962569;28;20043;-65
2022/10/16 04:08:13;;;;;;;6.27;3.20;;;;;;;;;;4959766;28;20047;-65
2022/10/16 04:10:39;;;;;;;6.43;3.03;;;;;;;;;;4962516;28;20397;-64
2022/10/16 04:13:05;;;;;;;5.67;3.20;;;;;;;;;;4960314;28;20130;-65
2022/10/16 04:15:31;;;;;;;4.40;3.10;;;;;;;;;;4963128;28;20408;-65
2022/10/16 04:17:57;;;;;;;7.07;3.40;;;;;;;;;;4963923;28;20051;-65
2022/10/16 04:20:23;;;;;;;6.43;2.97;;;;;;;;;;4964612;28;20062;-65
2022/10/16 04:22:49;;;;;;;7.77;3.50;;;;;;;;;;4965794;28;20041;-64
2022/10/16 04:25:15;;;;;;;5.77;3.60;;;;;;;;;;4965599;28;20047;-64
2022/10/16 04:27:41;;;;;;;4.40;2.97;;;;;;;;;;4960971;28;20129;-64
2022/10/16 04:30:07;;;;;;;5.17;3.40;;;;;;;;;;4962418;28;20189;-64
2022/10/16 04:32:33;;;;;;;5.63;3.50;;;;;;;;;;4969869;28;20434;-65
2022/10/16 04:35:00;;;;;;;9.30;3.63;;;;;;;;;;4971072;28;20061;-65
2022/10/16 04:37:26;;;;;;;11.03;3.80;;;;;;;;;;4971386;28;20413;-65
2022/10/16 04:39:52;;;;;;;9.20;3.27;;;;;;;;;;4971514;28;20125;-65
2022/10/16 04:42:18;;;;;;;6.30;3.10;;;;;;;;;;4970235;28;20042;-65
2022/10/16 04:44:45;;;;;;;8.20;3.20;;;;;;;;;;4970007;28;20042;-65
2022/10/16 04:47:11;;;;;;;7.73;3.33;;;;;;;;;;4970734;28;20047;-64
2022/10/16 04:49:37;;;;;;;6.47;3.30;;;;;;;;;;4970955;28;20140;-65
2022/10/16 04:52:03;;;;;;;5.17;3.77;;;;;;;;;;4979016;28;20525;-64
2022/10/16 04:54:29;;;;;;;7.37;3.50;;;;;;;;;;4990063;28;20132;-65
2022/10/16 04:56:55;;;;;;;6.83;3.83;;;;;;;;;;4976394;28;20054;-65
2022/10/16 04:59:22;;;;;;;7.20;3.50;;;;;;;;;;4970718;28;20054;-64
2022/10/16 05:01:48;;;;;;;6.80;4.20;;;;;;;;;;4989845;28;20056;-64
2022/10/16 05:04:15;;;;;;;7.83;3.53;;;;;;;;;;4990187;28;20046;-65
2022/10/16 05:06:41;;;;;;;9.70;3.47;;;;;;;;;;4990041;28;20496;-65
2022/10/16 05:09:07;;;;;;;10.40;3.43;;;;;;;;;;4989910;28;20488;-64
2022/10/16 05:11:34;;;;;;;8.30;3.70;;;;;;;;;;4990024;28;20097;-65
2022/10/16 05:14:00;;;;;;;10.80;3.83;;;;;;;;;;4976243;28;20595;-64
2022/10/16 05:16:26;;;;;;;6.00;3.40;;;;;;;;;;4989614;28;20048;-65
2022/10/16 05:18:52;;;;;;;7.73;3.63;;;;;;;;;;4989811;28;20417;-65
2022/10/16 05:21:18;;;;;;;7.53;4.07;;;;;;;;;;4973260;28;20039;-65
2022/10/16 05:23:44;;;;;;;5.57;3.70;;;;;;;;;;4989993;28;20042;-65
2022/10/16 05:26:10;;;;;;;8.23;3.80;;;;;;;;;;4989574;28;20457;-65
2022/10/16 05:28:37;;;;;;;7.67;3.53;;;;;;;;;;4984343;28;20042;-66
2022/10/16 05:31:10;;;;;;;6.80;4.33;;;;;;;;;;4970181;28;20066;-66
2022/10/16 05:33:36;;;;;;;8.82;3.67;;;;;;;;;;4970306;28;20137;-66
2022/10/16 05:36:03;;;;;;;6.13;3.77;;;;;;;;;;4970578;28;20424;-65
2022/10/16 05:38:29;;;;;;;8.30;3.30;;;;;;;;;;4970249;28;20157;-65
2022/10/16 05:40:56;;;;;;;11.33;3.90;;;;;;;;;;4970657;28;20047;-66
2022/10/16 05:43:22;;;;;;;10.60;3.93;;;;;;;;;;4972858;28;20058;-66
2022/10/16 05:45:55;;;;;;;6.70;3.73;;;;;;;;;;4989917;28;20042;-65
2022/10/16 05:48:22;;;;;;;10.73;3.55;;;;;;;;;;4983397;28;20050;-66
2022/10/16 05:50:48;;;;;;;6.70;3.37;;;;;;;;;;4990215;28;20456;-66
2022/10/16 05:53:14;;;;;;;8.33;3.27;;;;;;;;;;4988559;28;20137;-65
2022/10/16 05:55:40;;;;;;;5.70;3.30;;;;;;;;;;4972600;28;20129;-66
2022/10/16 05:58:06;;;;;;;8.17;3.50;;;;;;;;;;4989861;28;20129;-65
2022/10/16 06:00:32;;;;;;;11.27;3.20;;;;;;;;;;4988117;28;20444;-64
2022/10/16 06:02:58;;;;;;;7.23;3.13;;;;;;;;;;4989585;28;20042;-65
2022/10/16 06:05:24;;;;;;;7.23;2.93;;;;;;;;;;4974494;28;20416;-65
2022/10/16 06:07:50;;;;;;;7.40;3.73;;;;;;;;;;4989439;28;20054;-65
2022/10/16 06:10:16;;;;;;;4.53;3.00;;;;;;;;;;4988424;28;20074;-65
2022/10/16 06:12:42;;;;;;;5.10;2.67;;;;;;;;;;4989070;28;20109;-65
2022/10/16 06:15:08;;;;;;;6.13;3.07;;;;;;;;;;4987722;28;20081;-65
2022/10/16 06:17:34;;;;;;;8.70;2.97;;;;;;;;;;4987824;28;20085;-65
2022/10/16 06:20:00;;;;;;;5.57;2.87;;;;;;;;;;4987910;28;20117;-65
2022/10/16 06:22:26;;;;;;;7.30;2.60;;;;;;;;;;4970442;28;20043;-65
2022/10/16 06:24:52;;;;;;;5.50;2.77;;;;;;;;;;4969812;28;20532;-65
2022/10/16 06:27:18;;;;;;;6.97;2.80;;;;;;;;;;4978340;28;20077;-65
2022/10/16 06:29:45;;;;;;;6.73;2.30;;;;;;;;;;4992562;28;20121;-65
2022/10/16 06:32:11;;;;;;;6.27;2.60;;;;;;;;;;4992888;28;20050;-65
2022/10/16 06:34:37;;;;;;;6.20;2.60;;;;;;;;;;4991583;28;20378;-65
2022/10/16 06:37:03;;;;;;;5.40;2.57;;;;;;;;;;4992880;28;20078;-65
2022/10/16 06:39:29;;;;;;;7.60;2.43;;;;;;;;;;4974018;28;20134;-65
2022/10/16 06:41:55;;;;;;;7.33;2.73;;;;;;;;;;4973085;28;20053;-66
2022/10/16 06:44:21;;;;;;;4.50;2.27;;;;;;;;;;4973839;28;20053;-66
2022/10/16 06:46:47;;;;;;;6.77;2.20;;;;;;;;;;4973188;28;20044;-65
2022/10/16 06:49:15;;;;;;;8.10;2.27;;;;;;;;;;4966622;28;20583;-64
2022/10/16 06:51:41;;;;;;;8.00;2.30;;;;;;;;;;4972458;28;20086;-63
2022/10/16 06:54:08;;;;;;;6.40;2.37;;;;;;;;;;4971538;28;20510;-65
2022/10/16 06:56:34;;;;;;;5.97;2.17;;;;;;;;;;4966646;28;20081;-65
2022/10/16 06:59:00;;;;;;;5.43;2.37;;;;;;;;;;4961604;28;20105;-65
2022/10/16 07:01:26;;;;;;;6.40;2.53;;;;;;;;;;4962369;28;20039;-65
2022/10/16 07:03:53;;;;;;;6.37;2.00;;;;;;;;;;4967953;28;20076;-65
2022/10/16 07:06:20;;;;;;;8.63;2.83;;;;;;;;;;4953661;29;20133;-65
2022/10/16 07:08:47;;;;;;;6.47;2.30;;;;;;;;;;4963605;28;20070;-65
2022/10/16 07:11:14;;;;;;;9.73;2.23;;;;;;;;;;4971875;28;20069;-65
2022/10/16 07:13:41;;;;;;;7.30;2.23;;;;;;;;;;4972329;28;20046;-66
2022/10/16 07:16:09;;;;;;;6.70;2.20;;;;;;;;;;4972894;28;20050;-65
2022/10/16 07:18:36;;;;;;;6.20;1.87;;;;;;;;;;4972908;28;20069;-65
2022/10/16 07:21:05;;;;;;;6.33;2.93;;;;;;;;;;4973143;28;20047;-65
2022/10/16 07:23:31;;;;;;;6.47;2.20;;;;;;;;;;4972814;28;20043;-65
2022/10/16 07:25:57;;;;;;;4.23;1.63;;;;;;;;;;4990470;28;20050;-65
2022/10/16 07:28:23;;;;;;;5.80;2.10;;;;;;;;;;4971450;28;20073;-65
2022/10/16 07:30:49;;;;;;;2.90;1.47;;;;;;;;;;4961324;28;20051;-65
2022/10/16 07:33:15;;;;;;;5.97;1.93;;;;;;;;;;4968059;28;20174;-65
2022/10/16 07:35:51;;;;;;;7.93;1.47;;;;;;;;;;4960541;28;20077;-64
2022/10/16 07:38:18;;;;;;;7.70;2.07;;;;;;;;;;4966312;28;20047;-65
2022/10/16 07:40:44;;;;;;;4.03;1.50;;;;;;;;;;4959588;28;20122;-65
2022/10/16 07:43:10;;;;;;;4.73;1.50;;;;;;;;;;4962129;28;20082;-64
2022/10/16 07:45:36;;;;;;;7.47;2.37;;;;;;;;;;4965395;28;20039;-64
2022/10/16 07:48:02;;;;;;;8.37;1.23;;;;;;;;;;4961035;28;20700;-64
2022/10/16 07:50:28;;;;;;;12.70;1.80;;;;;;;;;;4963231;28;20051;-64
2022/10/16 07:52:54;;;;;;;3.93;1.00;;;;;;;;;;4960811;28;20469;-64
2022/10/16 07:55:20;;;;;;;3.27;1.10;;;;;;;;;;4962612;28;20086;-64
2022/10/16 07:57:46;;;;;;;5.70;1.50;;;;;;;;;;4961487;28;20031;-64
2022/10/16 08:00:13;;;;;;;4.37;0.97;;;;;;;;;;4960364;28;20050;-64
2022/10/16 08:02:40;;;;;;;5.33;1.10;;;;;;;;;;4962054;28;20046;-64
2022/10/16 08:05:07;;;;;;;2.77;0.87;;;;;;;;;;4970467;28;20066;-64
2022/10/16 08:07:33;;;;;;;5.93;1.00;;;;;;;;;;4969761;28;20142;-65
2022/10/16 08:09:59;;;;;;;3.70;0.90;;;;;;;;;;4970219;28;20185;-64
2022/10/16 08:12:25;;;;;;;4.40;0.90;;;;;;;;;;4971754;28;20130;-65
2022/10/16 08:14:51;;;;;;;3.57;1.17;;;;;;;;;;4971529;28;20488;-64
2022/10/16 08:17:17;;;;;;;3.80;1.30;;;;;;;;;;4971435;28;20054;-64
2022/10/16 08:19:47;;;;;;;2.87;1.37;;;;;;;;;;4971531;28;20043;-64
2022/10/16 08:22:13;;;;;;;4.20;1.80;;;;;;;;;;4971839;28;20046;-65
2022/10/16 08:24:39;;;;;;;7.83;1.97;;;;;;;;;;4971414;28;20181;-65
2022/10/16 08:27:06;;;;;;;8.77;2.77;;;;;;;;;;4971600;28;20421;-64
2022/10/16 08:29:32;;;;;;;5.30;2.43;;;;;;;;;;4969961;28;20055;-65
2022/10/16 08:31:58;;;;;;;8.83;2.43;;;;;;;;;;4981211;28;20060;-65
2022/10/16 08:34:25;;;;;;;8.60;2.23;;;;;;;;;;4970922;28;20576;-65
2022/10/16 08:36:54;;;;;;;7.27;2.13;;;;;;;;;;4971380;28;20047;-65
2022/10/16 08:39:20;;;;;;;4.33;1.80;;;;;;;;;;4971540;28;20054;-65
2022/10/16 08:42:06;;;;;;;4.27;2.07;;;;;;;;;;4971142;28;20117;-65
2022/10/16 08:44:47;;;;;;;6.23;2.07;;;;;;;;;;4971267;28;20489;-64
2022/10/16 08:47:18;;;;;;;3.43;1.50;;;;;;;;;;4971633;28;20557;-65
2022/10/16 08:49:50;;;;;;;7.37;1.93;;;;;;;;;;4967926;28;20050;-64
2022/10/16 08:52:16;;;;;;;5.25;2.13;;;;;;;;;;4971065;28;20046;-64
2022/10/16 08:54:44;;;;;;;6.97;2.03;;;;;;;;;;4970983;28;20050;-65
2022/10/16 08:57:12;;;;;;;3.30;1.73;;;;;;;;;;4970734;28;20047;-65
2022/10/16 08:59:38;;;;;;;5.90;1.63;;;;;;;;;;4976901;28;20501;-65
2022/10/16 09:02:19;;;;;;;5.27;1.40;;;;;;;;;;4990464;28;20054;-64
2022/10/16 09:04:55;;;;;;;5.30;1.60;;;;;;;;;;4988792;28;20046;-65
2022/10/16 09:07:21;;;;;;;7.07;2.07;;;;;;;;;;4990036;28;20054;-64
2022/10/16 09:09:53;;;;;;;7.07;1.97;;;;;;;;;;4982234;28;20469;-64
2022/10/16 09:12:34;;;;;;;5.03;1.87;;;;;;;;;;4970428;28;20508;-64
2022/10/16 09:15:00;;;;;;;7.70;1.50;;;;;;;;;;4970524;28;20046;-64
2022/10/16 09:17:35;;;;;;;6.00;1.80;;;;;;;;;;4970348;28;20042;-64
2022/10/16 09:20:17;;;;;;;3.67;1.20;;;;;;;;;;4970905;28;20505;-64
2022/10/16 09:22:43;;;;;;;4.00;1.93;;;;;;;;;;4989589;28;20042;-64
2022/10/16 09:25:13;;;;;;;7.00;1.47;;;;;;;;;;4989986;28;20061;-64
2022/10/16 09:27:39;;;;;;;10.93;1.67;;;;;;;;;;4989377;28;20046;-67
2022/10/16 09:30:16;;;;;;;4.80;1.87;;;;;;;;;;4989206;28;20058;-64
2022/10/16 09:32:43;;;;;;;6.60;1.87;;;;;;;;;;4979610;28;20046;-63
2022/10/16 09:35:21;;;;;;;8.43;1.47;;;;;;;;;;4970456;28;20051;-63
2022/10/16 09:37:50;;;;;;;7.33;2.63;;;;;;;;;;4970390;28;20046;-64
2022/10/16 09:40:26;;;;;;;8.40;1.63;;;;;;;;;;4969435;28;20039;-63
2022/10/16 09:42:57;;;;;;;8.37;1.77;;;;;;;;;;4969989;28;20050;-63
2022/10/16 09:45:24;;;;;;;7.77;1.90;;;;;;;;;;4970347;28;20051;-64
2022/10/16 09:47:50;;;;;;;7.70;2.10;;;;;;;;;;4969935;28;20504;-64
2022/10/16 09:50:28;;;;;;;8.50;1.43;;;;;;;;;;4968510;28;20063;-63
2022/10/16 09:53:14;;;;;;;9.77;1.93;;;;;;;;;;4968704;28;20916;-63
2022/10/16 09:55:53;;;;;;;6.60;1.70;;;;;;;;;;4968589;28;20576;-65
2022/10/16 09:58:24;;;;;;;5.77;1.63;;;;;;;;;;4969886;28;20042;-63
2022/10/16 10:00:52;;;;;;;8.83;2.27;;;;;;;;;;4968842;28;20051;-63
2022/10/16 10:03:31;;;;;;;8.57;1.50;;;;;;;;;;4968628;28;20101;-64
2022/10/16 10:05:57;;;;;;;12.40;1.83;;;;;;;;;;4969961;28;20129;-64
2022/10/16 10:08:23;;;;;;;6.50;1.70;;;;;;;;;;4974886;28;20054;-64
2022/10/16 10:10:49;;;;;;;11.50;2.00;;;;;;;;;;4970456;28;20050;-64
2022/10/16 10:13:18;;;;;;;7.57;2.00;;;;;;;;;;4969133;28;20046;-64
2022/10/16 10:15:44;;;;;;;7.60;1.90;;;;;;;;;;4970032;28;20046;-63
2022/10/16 10:18:21;;;;;;;8.53;1.70;;;;;;;;;;4973591;28;20571;-63
2022/10/16 10:20:57;;;;;;;11.07;2.00;;;;;;;;;;4988821;28;20527;-63
2022/10/16 10:23:26;;;;;;;10.57;1.97;;;;;;;;;;4984235;28;20085;-63
2022/10/16 10:25:58;;;;;;;10.47;2.00;;;;;;;;;;4973444;28;20047;-62
2022/10/16 10:28:36;;;;;;;9.87;2.30;;;;;;;;;;4968750;28;20397;-63
2022/10/16 10:31:15;;;;;;;9.80;1.93;;;;;;;;;;4958801;28;20047;-63
2022/10/16 10:33:44;;;;;;;11.20;2.00;;;;;;;;;;4950356;29;20155;-62
2022/10/16 10:36:10;;;;;;;8.47;1.90;;;;;;;;;;4949311;29;20505;-62
2022/10/16 10:38:45;;;;;;;6.13;1.67;;;;;;;;;;4949729;29;20501;-62
2022/10/16 10:41:20;;;;;;;7.70;1.73;;;;;;;;;;4973366;28;20094;-62
2022/10/16 10:44:02;;;;;;;8.33;2.00;;;;;;;;;;4966369;28;20047;-62
2022/10/16 10:46:31;;;;;;;9.57;2.00;;;;;;;;;;4988836;28;20047;-62
2022/10/16 10:49:06;;;;;;;9.67;2.00;;;;;;;;;;4983273;28;20050;-62
2022/10/16 10:51:32;;;;;;;6.40;1.83;;;;;;;;;;4976269;28;20136;-62
2022/10/16 10:54:16;;;;;;;9.63;1.97;;;;;;;;;;4988648;28;20158;-62
2022/10/16 10:56:52;;;;;;;7.27;1.83;;;;;;;;;;4986832;28;20572;-62
2022/10/16 10:59:25;;;;;;;7.83;1.97;;;;;;;;;;4969404;28;20059;-62
2022/10/16 11:01:55;;;;;;;12.17;2.27;;;;;;;;;;4986742;28;20050;-62
2022/10/16 11:04:24;;;;;;;8.30;1.73;;;;;;;;;;4988718;28;20043;-62
2022/10/16 11:07:05;;;;;;;9.97;1.73;;;;;;;;;;4988928;28;20078;-62
2022/10/16 11:09:33;;;;;;;8.53;2.10;;;;;;;;;;4988684;28;20560;-62
2022/10/16 11:12:17;;;;;;;9.80;2.07;;;;;;;;;;4977796;28;20093;-62
2022/10/16 11:14:46;;;;;;;7.90;1.90;;;;;;;;;;4979975;28;20050;-63
2022/10/16 11:17:22;;;;;;;9.27;1.70;;;;;;;;;;4970022;28;20089;-61
2022/10/16 11:20:08;;;;;;;10.10;2.20;;;;;;;;;;4972165;28;20043;-62
2022/10/16 11:22:36;;;;;;;7.20;1.40;;;;;;;;;;4961030;28;20102;-62
2022/10/16 11:25:05;;;;;;;8.33;1.70;;;;;;;;;;4971918;28;20051;-61
2022/10/16 11:27:37;;;;;;;10.30;1.57;;;;;;;;;;4972057;28;20054;-61
2022/10/16 11:30:06;;;;;;;9.60;2.73;;;;;;;;;;4971814;28;20550;-62
2022/10/16 11:32:51;;;;;;;7.47;1.70;;;;;;;;;;4970988;28;20509;-61
2022/10/16 11:35:26;;;;;;;8.17;2.50;;;;;;;;;;4964717;28;20046;-61
2022/10/16 11:37:53;;;;;;;13.67;2.40;;;;;;;;;;4971866;28;20141;-61
2022/10/16 11:40:25;;;;;;;7.37;1.53;;;;;;;;;;4969115;28;20302;-61
2022/10/16 11:43:06;;;;;;;7.97;1.80;;;;;;;;;;4969658;28;20046;-61
2022/10/16 11:45:41;;;;;;;8.93;2.40;;;;;;;;;;4969720;28;20051;-61
2022/10/16 11:48:16;;;;;;;10.97;1.90;;;;;;;;;;4970127;28;20047;-61
2022/10/16 11:50:45;;;;;;;16.77;2.23;;;;;;;;;;4969774;28;20467;-61
2022/10/16 11:53:20;;;;;;;8.20;1.90;;;;;;;;;;4969383;28;20047;-61
2022/10/16 11:55:46;;;;;;;8.07;1.47;;;;;;;;;;4971009;28;20046;-61
2022/10/16 11:58:17;;;;;;;11.57;2.00;;;;;;;;;;4971577;28;20055;-61
2022/10/16 12:00:48;;;;;;;11.10;2.23;;;;;;;;;;4970103;28;20062;-61
2022/10/16 12:03:23;;;;;;;12.67;2.00;;;;;;;;;;4971266;28;20050;-61
2022/10/16 12:05:58;;;;;;;10.50;2.50;;;;;;;;;;4971355;28;20051;-61
2022/10/16 12:08:24;;;;;;;9.00;2.30;;;;;;;;;;4971083;28;20050;-61
2022/10/16 12:10:50;;;;;;;6.20;1.57;;;;;;;;;;4971179;28;20045;-61
2022/10/16 12:13:33;;;;;;;8.80;2.30;;;;;;;;;;4971184;28;20047;-61
2022/10/16 12:16:25;;;;;;;7.90;1.95;;;;;;;;;;4970461;28;20573;-61
2022/10/16 12:19:03;;;;;;;15.97;2.77;;;;;;;;;;4968209;28;20046;-63
2022/10/16 12:21:32;;;;;;;9.70;2.20;;;;;;;;;;4969982;28;20129;-61
2022/10/16 12:23:59;;;;;;;9.83;1.97;;;;;;;;;;4970697;28;20051;-61
2022/10/16 12:26:38;;;;;;;9.07;2.00;;;;;;;;;;4970936;28;20058;-61
2022/10/16 12:29:22;;;;;;;6.83;1.83;;;;;;;;;;4949360;29;20110;-61
2022/10/16 12:31:49;;;;;;;7.03;1.43;;;;;;;;;;4950571;29;20062;-61
2022/10/16 12:34:22;;;;;;;12.60;2.43;;;;;;;;;;4958833;28;20489;-62
2022/10/16 12:36:48;;;;;;;9.13;1.73;;;;;;;;;;4970528;28;20497;-61
2022/10/16 12:39:22;;;;;;;8.93;2.00;;;;;;;;;;4970222;28;20051;-61
2022/10/16 12:41:48;;;;;;;7.33;1.67;;;;;;;;;;4970569;28;20046;-61
2022/10/16 12:44:26;;;;;;;9.30;2.10;;;;;;;;;;4970985;28;20043;-61
2022/10/16 12:46:52;;;;;;;6.07;1.50;;;;;;;;;;4970640;28;20420;-61
2022/10/16 12:49:24;;;;;;;10.07;1.90;;;;;;;;;;4970243;28;20393;-62
2022/10/16 12:51:50;;;;;;;13.10;2.50;;;;;;;;;;4970475;28;20050;-61
2022/10/16 12:54:18;;;;;;;11.10;2.57;;;;;;;;;;4970255;28;20409;-61
2022/10/16 12:57:08;;;;;;;9.30;1.87;;;;;;;;;;4970351;28;20047;-61
2022/10/16 12:59:43;;;;;;;6.77;2.17;;;;;;;;;;4970142;28;20378;-61
2022/10/16 13:02:09;;;;;;;12.20;2.17;;;;;;;;;;4970281;28;20054;-61
2022/10/16 13:04:41;;;;;;;8.37;1.87;;;;;;;;;;4968377;28;20601;-61
2022/10/16 13:07:29;;;;;;;8.65;1.77;;;;;;;;;;4968929;28;20251;-61
2022/10/16 13:10:03;;;;;;;7.57;1.63;;;;;;;;;;4951042;29;20137;-61
2022/10/16 13:12:38;;;;;;;8.77;2.53;;;;;;;;;;4950721;29;20051;-61
2022/10/16 13:15:27;;;;;;;7.63;1.63;;;;;;;;;;4950224;29;20055;-61
2022/10/16 13:17:53;;;;;;;6.60;1.73;;;;;;;;;;4952988;28;20500;-61
2022/10/16 13:20:40;;;;;;;11.70;2.40;;;;;;;;;;4970003;28;20054;-61
2022/10/16 13:23:30;;;;;;;8.50;1.70;;;;;;;;;;4959396;28;20400;-61
2022/10/16 13:25:56;;;;;;;8.60;1.87;;;;;;;;;;4970268;28;20138;-61
2022/10/16 13:28:23;;;;;;;8.23;2.67;;;;;;;;;;4969684;28;20058;-62
2022/10/16 13:30:57;;;;;;;10.40;1.77;;;;;;;;;;4969734;28;20046;-62
2022/10/16 13:33:35;;;;;;;8.97;1.60;;;;;;;;;;4969862;28;20047;-62
2022/10/16 13:36:02;;;;;;;7.83;1.53;;;;;;;;;;4968144;28;20087;-62
2022/10/16 13:38:31;;;;;;;6.33;2.10;;;;;;;;;;4969990;28;20489;-62
2022/10/16 13:41:05;;;;;;;6.77;1.53;;;;;;;;;;4969501;28;20051;-62
2022/10/16 13:43:39;;;;;;;7.00;1.70;;;;;;;;;;4969551;28;20047;-61
2022/10/16 13:46:06;;;;;;;7.03;1.77;;;;;;;;;;4969735;28;20522;-62
2022/10/16 13:48:33;;;;;;;8.33;1.93;;;;;;;;;;4969483;28;20046;-62
2022/10/16 13:51:00;;;;;;;4.93;1.67;;;;;;;;;;4969463;28;20081;-61
2022/10/16 13:53:26;;;;;;;9.37;1.70;;;;;;;;;;4969543;28;20054;-61
2022/10/16 13:55:52;;;;;;;9.20;2.20;;;;;;;;;;4969592;28;20054;-62
2022/10/16 13:58:18;;;;;;;7.87;1.87;;;;;;;;;;4969286;28;20191;-62
2022/10/16 14:00:58;;;;;;;10.13;2.13;;;;;;;;;;4967798;28;20053;-62
2022/10/16 14:03:25;;;;;;;6.90;1.33;;;;;;;;;;4967805;28;20058;-61
2022/10/16 14:05:55;;;;;;;7.77;1.60;;;;;;;;;;4969319;28;20505;-62
2022/10/16 14:08:23;;;;;;;7.00;1.83;;;;;;;;;;4969416;28;20046;-62
2022/10/16 14:10:53;;;;;;;8.20;1.83;;;;;;;;;;4968885;28;20469;-61
2022/10/16 14:13:21;;;;;;;9.93;2.33;;;;;;;;;;4968313;28;20114;-61
2022/10/16 14:15:51;;;;;;;10.50;1.73;;;;;;;;;;4969147;28;20049;-62
2022/10/16 14:18:19;;;;;;;8.03;1.57;;;;;;;;;;4969291;28;20046;-62
2022/10/16 14:20:45;;;;;;;13.73;1.87;;;;;;;;;;4968857;28;20043;-61
2022/10/16 14:23:22;;;;;;;13.23;2.27;;;;;;;;;;4969493;28;20046;-62
2022/10/16 14:25:48;;;;;;;7.50;1.47;;;;;;;;;;4968424;28;20090;-61
2022/10/16 14:28:14;;;;;;;10.03;2.07;;;;;;;;;;4968835;28;20053;-62
2022/10/16 14:30:49;;;;;;;11.53;2.77;;;;;;;;;;4967413;28;20054;-62
2022/10/16 14:33:24;;;;;;;10.10;2.13;;;;;;;;;;4969564;28;20412;-62
2022/10/16 14:36:04;;;;;;;9.40;1.50;;;;;;;;;;4969146;28;20051;-62
2022/10/16 14:38:31;;;;;;;6.13;1.80;;;;;;;;;;4968755;28;20050;-62
2022/10/16 14:40:58;;;;;;;8.60;1.70;;;;;;;;;;4968924;28;20043;-62
2022/10/16 14:43:32;;;;;;;5.27;1.30;;;;;;;;;;4968981;28;20102;-61
2022/10/16 14:45:58;;;;;;;7.13;1.37;;;;;;;;;;4968975;28;20054;-61
2022/10/16 14:48:24;;;;;;;6.30;1.57;;;;;;;;;;4971521;28;20544;-62
2022/10/16 14:50:50;;;;;;;6.27;1.23;;;;;;;;;;4972704;28;20043;-61
2022/10/16 14:53:16;;;;;;;11.17;1.87;;;;;;;;;;4972320;28;20093;-62
2022/10/16 14:55:43;;;;;;;7.33;1.40;;;;;;;;;;4972007;28;20050;-61